Time;durP1;ratioP1;P1;durP2;ratioP2;P2;SDS_P1;SDS_P2;PMS_P1;PMS_P2;Temp;Humidity;BMP_temperature;BMP_pressure;BME280_temperature;BME280_humidity;BME280_pressure;Samples;Min_cycle;Max_cycle;Signal;HPM_P1;HPM_P2
2023/06/11 00:01:23;;;;;;;;;;;24.30;88.10;;;;;;7327858;19;109882;-63
2023/06/11 00:03:53;;;;;;;;;;;24.20;88.60;;;;;;7340818;19;110539;-63
2023/06/11 00:06:22;;;;;;;;;;;24.10;88.20;;;;;;7339799;19;109548;-63
2023/06/11 00:08:51;;;;;;;;;;;24.10;88.50;;;;;;7347032;19;111021;-63
2023/06/11 00:11:18;;;;;;;;;;;24.10;89.10;;;;;;7339737;19;109970;-63
2023/06/11 00:13:50;;;;;;;;;;;24.10;89.30;;;;;;7340162;19;119617;-63
2023/06/11 00:16:17;;;;;;;;;;;24.00;88.80;;;;;;7337901;19;110023;-63
2023/06/11 00:18:45;;;;;;;;;;;24.00;89.50;;;;;;7340880;19;110261;-63
2023/06/11 00:21:13;;;;;;;;;;;24.00;89.70;;;;;;7339771;19;111041;-63
2023/06/11 00:23:40;;;;;;;;;;;24.00;89.90;;;;;;7339928;19;110620;-63
2023/06/11 00:26:07;;;;;;;;;;;23.90;90.00;;;;;;7338251;19;110727;-63
2023/06/11 00:28:34;;;;;;;;;;;23.90;90.10;;;;;;7341136;19;109607;-63
2023/06/11 00:31:03;;;;;;;;;;;23.90;89.90;;;;;;7343349;19;110266;-63
2023/06/11 00:33:31;;;;;;;;;;;23.90;89.90;;;;;;7338205;19;109678;-63
2023/06/11 00:35:58;;;;;;;;;;;23.90;90.00;;;;;;7333181;19;112159;-63
2023/06/11 00:38:25;;;;;;;;;;;23.80;90.20;;;;;;7339060;19;109987;-63
2023/06/11 00:40:52;;;;;;;;;;;23.80;90.40;;;;;;7338724;19;110385;-63
2023/06/11 00:43:21;;;;;;;;;;;23.70;90.50;;;;;;7337353;19;110185;-63
2023/06/11 00:45:52;;;;;;;;;;;23.70;90.50;;;;;;7337610;19;110292;-63
2023/06/11 00:48:19;;;;;;;;;;;23.70;90.70;;;;;;7337098;19;109531;-63
2023/06/11 00:50:50;;;;;;;;;;;23.60;90.70;;;;;;7338326;19;111622;-63
2023/06/11 00:53:19;;;;;;;;;;;23.60;90.70;;;;;;7343092;19;110768;-63
2023/06/11 00:55:46;;;;;;;;;;;23.60;90.60;;;;;;7338721;19;112350;-63
2023/06/11 00:58:15;;;;;;;;;;;23.60;90.90;;;;;;7339287;19;110250;-63
2023/06/11 01:00:45;;;;;;;;;;;23.60;90.90;;;;;;7339889;19;109362;-63
2023/06/11 01:03:17;;;;;;;;;;;23.50;90.90;;;;;;7336521;19;110612;-63
2023/06/11 01:05:49;;;;;;;;;;;23.50;90.90;;;;;;7335922;19;109643;-63
2023/06/11 01:08:19;;;;;;;;;;;23.50;91.00;;;;;;7336474;19;109740;-65
2023/06/11 01:10:47;;;;;;;;;;;23.50;91.00;;;;;;7338831;19;110580;-63
2023/06/11 01:13:14;;;;;;;;;;;23.40;91.10;;;;;;7341283;19;109587;-63
2023/06/11 01:15:41;;;;;;;;;;;23.40;90.90;;;;;;7338046;19;111634;-63
2023/06/11 01:18:08;;;;;;;;;;;23.40;91.40;;;;;;7336798;19;110572;-63
2023/06/11 01:20:39;;;;;;;;;;;23.40;91.10;;;;;;7340262;19;110104;-64
2023/06/11 01:23:24;;;;;;;;;;;23.30;91.30;;;;;;7335833;19;110482;-63
2023/06/11 01:25:57;;;;;;;;;;;23.40;91.40;;;;;;7336226;19;109266;-63
2023/06/11 01:28:27;;;;;;;;;;;23.30;91.70;;;;;;7336784;19;109968;-63
2023/06/11 01:30:57;;;;;;;;;;;23.20;91.60;;;;;;7336226;19;111053;-63
2023/06/11 01:33:26;;;;;;;;;;;23.20;91.90;;;;;;7337264;19;109687;-63
2023/06/11 01:35:57;;;;;;;;;;;23.10;91.70;;;;;;7341194;19;109791;-63
2023/06/11 01:38:30;;;;;;;;;;;23.10;92.00;;;;;;7333598;19;109856;-62
2023/06/11 01:40:58;;;;;;;;;;;23.10;92.10;;;;;;7331223;19;111408;-63
2023/06/11 01:43:28;;;;;;;;;;;23.00;91.90;;;;;;7334328;19;111060;-62
2023/06/11 01:45:56;;;;;;;;;;;23.00;91.80;;;;;;7334183;19;111370;-63
2023/06/11 01:48:23;;;;;;;;;;;23.00;91.60;;;;;;7336914;19;109912;-62
2023/06/11 01:50:50;;;;;;;;;;;23.00;92.20;;;;;;7336210;19;111267;-63
2023/06/11 01:53:17;;;;;;;;;;;23.00;91.40;;;;;;7333416;19;109399;-63
2023/06/11 01:55:44;;;;;;;;;;;23.00;91.20;;;;;;7336902;19;109922;-63
2023/06/11 01:58:12;;;;;;;;;;;23.00;91.30;;;;;;7342463;19;109798;-64
2023/06/11 02:00:41;;;;;;;;;;;23.00;91.70;;;;;;7335616;19;109713;-62
2023/06/11 02:03:08;;;;;;;;;;;22.90;91.10;;;;;;7336254;19;111212;-63
2023/06/11 02:05:36;;;;;;;;;;;22.90;92.10;;;;;;7337479;19;109986;-63
2023/06/11 02:08:03;;;;;;;;;;;22.90;92.30;;;;;;7335410;19;110657;-62
2023/06/11 02:10:30;;;;;;;;;;;22.80;92.50;;;;;;7336652;19;110805;-63
2023/06/11 02:12:57;;;;;;;;;;;22.70;92.10;;;;;;7334186;19;110427;-63
2023/06/11 02:15:24;;;;;;;;;;;22.70;92.20;;;;;;7334929;19;109874;-63
2023/06/11 02:17:51;;;;;;;;;;;22.70;92.90;;;;;;7336035;19;110113;-63
2023/06/11 02:20:18;;;;;;;;;;;22.60;93.00;;;;;;7340375;19;111129;-63
2023/06/11 02:22:45;;;;;;;;;;;22.60;92.80;;;;;;7335415;19;110106;-63
2023/06/11 02:25:12;;;;;;;;;;;22.60;92.80;;;;;;7334587;19;110302;-63
2023/06/11 02:27:40;;;;;;;;;;;22.60;93.00;;;;;;7333517;19;109976;-63
2023/06/11 02:30:07;;;;;;;;;;;22.50;93.30;;;;;;7335608;19;110253;-62
2023/06/11 02:32:34;;;;;;;;;;;22.50;92.90;;;;;;7335382;19;111774;-63
2023/06/11 02:35:01;;;;;;;;;;;22.50;92.40;;;;;;7333950;19;109656;-63
2023/06/11 02:37:29;;;;;;;;;;;22.50;92.60;;;;;;7336281;19;110507;-63
2023/06/11 02:39:59;;;;;;;;;;;22.50;93.00;;;;;;7334922;19;109389;-65
2023/06/11 02:42:26;;;;;;;;;;;22.40;93.30;;;;;;7340691;19;109586;-63
2023/06/11 02:44:53;;;;;;;;;;;22.40;93.60;;;;;;7335783;19;109819;-63
2023/06/11 02:47:20;;;;;;;;;;;22.40;92.80;;;;;;7332633;19;109675;-63
2023/06/11 02:49:47;;;;;;;;;;;22.40;93.40;;;;;;7335693;19;111547;-63
2023/06/11 02:52:14;;;;;;;;;;;22.40;93.20;;;;;;7335608;19;110026;-63
2023/06/11 02:54:41;;;;;;;;;;;22.30;93.20;;;;;;7332221;19;112047;-63
2023/06/11 02:57:08;;;;;;;;;;;22.30;92.50;;;;;;7335862;19;112488;-63
2023/06/11 02:59:35;;;;;;;;;;;22.30;93.40;;;;;;7334118;19;109524;-63
2023/06/11 03:02:02;;;;;;;;;;;22.30;92.60;;;;;;7337524;19;110192;-63
2023/06/11 03:04:30;;;;;;;;;;;22.30;93.80;;;;;;7334264;19;109644;-63
2023/06/11 03:06:57;;;;;;;;;;;22.10;93.50;;;;;;7331430;19;109500;-63
2023/06/11 03:09:24;;;;;;;;;;;22.10;93.60;;;;;;7333029;19;110606;-63
2023/06/11 03:11:51;;;;;;;;;;;22.10;93.20;;;;;;7332012;19;110259;-63
2023/06/11 03:14:20;;;;;;;;;;;22.10;94.00;;;;;;7332216;19;109702;-63
2023/06/11 03:16:48;;;;;;;;;;;22.00;94.00;;;;;;7334240;19;110225;-63
2023/06/11 03:19:15;;;;;;;;;;;21.90;94.20;;;;;;7332024;19;110209;-62
2023/06/11 03:21:42;;;;;;;;;;;21.80;94.80;;;;;;7333007;19;109523;-62
2023/06/11 03:24:09;;;;;;;;;;;21.80;94.80;;;;;;7335939;19;110432;-63
2023/06/11 03:26:36;;;;;;;;;;;21.70;95.30;;;;;;7334989;19;110508;-63
2023/06/11 03:29:03;;;;;;;;;;;21.70;95.40;;;;;;7333352;19;110052;-63
2023/06/11 03:31:30;;;;;;;;;;;21.60;95.70;;;;;;7334734;19;109926;-63
2023/06/11 03:33:57;;;;;;;;;;;21.60;95.60;;;;;;7333725;19;110875;-62
2023/06/11 03:36:24;;;;;;;;;;;21.50;95.70;;;;;;7330204;19;110793;-63
2023/06/11 03:38:51;;;;;;;;;;;21.50;95.00;;;;;;7332205;19;111094;-62
2023/06/11 03:41:19;;;;;;;;;;;21.50;96.10;;;;;;7336497;19;112285;-63
2023/06/11 03:43:46;;;;;;;;;;;21.40;96.30;;;;;;7333649;19;109649;-63
2023/06/11 03:46:13;;;;;;;;;;;21.40;96.40;;;;;;7338073;19;109579;-62
2023/06/11 03:48:40;;;;;;;;;;;21.40;96.60;;;;;;7333101;19;113271;-63
2023/06/11 03:51:08;;;;;;;;;;;21.30;96.80;;;;;;7330614;19;110515;-62
2023/06/11 03:53:35;;;;;;;;;;;21.30;96.90;;;;;;7333850;19;109735;-63
2023/06/11 03:56:02;;;;;;;;;;;21.30;96.40;;;;;;7330921;19;111155;-63
2023/06/11 03:58:29;;;;;;;;;;;21.40;96.80;;;;;;7333064;19;110036;-63
2023/06/11 04:00:56;;;;;;;;;;;21.40;96.40;;;;;;7331619;19;110386;-63
2023/06/11 04:03:24;;;;;;;;;;;21.40;96.30;;;;;;7332969;19;110377;-63
2023/06/11 04:05:51;;;;;;;;;;;21.50;96.50;;;;;;7332379;19;109309;-62
2023/06/11 04:08:18;;;;;;;;;;;21.50;96.90;;;;;;7337597;19;109604;-63
2023/06/11 04:10:45;;;;;;;;;;;21.40;97.30;;;;;;7334069;19;109330;-63
2023/06/11 04:13:12;;;;;;;;;;;21.40;97.40;;;;;;7333685;19;109987;-63
2023/06/11 04:15:39;;;;;;;;;;;21.30;97.60;;;;;;7329958;19;110426;-63
2023/06/11 04:18:06;;;;;;;;;;;21.30;97.80;;;;;;7332447;19;109889;-63
2023/06/11 04:20:34;;;;;;;;;;;21.30;97.70;;;;;;7332318;19;109944;-62
2023/06/11 04:23:01;;;;;;;;;;;21.30;97.80;;;;;;7332452;19;110125;-63
2023/06/11 04:25:31;;;;;;;;;;;21.30;97.70;;;;;;7332199;19;110085;-63
2023/06/11 04:27:58;;;;;;;;;;;21.30;97.80;;;;;;7331646;19;109773;-63
2023/06/11 04:30:26;;;;;;;;;;;21.30;97.90;;;;;;7336723;19;111310;-62
2023/06/11 04:32:54;;;;;;;;;;;21.40;98.10;;;;;;7330890;19;109730;-63
2023/06/11 04:35:25;;;;;;;;;;;21.40;98.00;;;;;;7331782;19;110627;-63
2023/06/11 04:37:55;;;;;;;;;;;21.40;97.90;;;;;;7331983;19;109784;-62
2023/06/11 04:40:23;;;;;;;;;;;21.40;98.60;;;;;;7332140;19;109804;-62
2023/06/11 04:42:50;;;;;;;;;;;21.40;98.90;;;;;;7331357;19;110838;-63
2023/06/11 04:45:20;;;;;;;;;;;21.40;99.10;;;;;;7331233;19;111204;-63
2023/06/11 04:47:47;;;;;;;;;;;21.50;98.90;;;;;;7330160;19;109689;-62
2023/06/11 04:50:20;;;;;;;;;;;21.50;98.80;;;;;;7337000;19;109820;-62
2023/06/11 04:52:51;;;;;;;;;;;21.60;98.80;;;;;;7344233;19;109587;-62
2023/06/11 04:55:21;;;;;;;;;;;21.60;98.90;;;;;;7337809;19;110674;-63
2023/06/11 04:57:49;;;;;;;;;;;21.70;99.10;;;;;;7336709;19;109611;-63
2023/06/11 05:00:17;;;;;;;;;;;21.70;99.20;;;;;;7337340;19;109742;-63
2023/06/11 05:02:44;;;;;;;;;;;21.70;99.30;;;;;;7335061;19;111489;-63
2023/06/11 05:05:12;;;;;;;;;;;21.70;99.40;;;;;;7336471;19;109391;-63
2023/06/11 05:07:41;;;;;;;;;;;21.80;99.60;;;;;;7340088;19;109913;-63
2023/06/11 05:10:08;;;;;;;;;;;21.80;99.70;;;;;;7335333;19;111215;-63
2023/06/11 05:12:35;;;;;;;;;;;21.90;99.80;;;;;;7343462;19;109591;-63
2023/06/11 05:15:03;;;;;;;;;;;21.90;99.70;;;;;;7335909;19;110189;-63
2023/06/11 05:17:30;;;;;;;;;;;22.00;99.90;;;;;;7337809;19;111722;-63
2023/06/11 05:19:57;;;;;;;;;;;22.00;99.60;;;;;;7336023;19;110164;-63
2023/06/11 05:22:24;;;;;;;;;;;22.10;99.90;;;;;;7337060;19;110073;-63
2023/06/11 05:24:52;;;;;;;;;;;22.20;99.70;;;;;;7335599;19;109475;-63
2023/06/11 05:27:21;;;;;;;;;;;22.30;99.70;;;;;;7337605;19;109629;-63
2023/06/11 05:29:50;;;;;;;;;;;22.30;99.90;;;;;;7337163;19;110094;-63
2023/06/11 05:32:17;;;;;;;;;;;22.40;99.90;;;;;;7338151;19;109581;-63
2023/06/11 05:34:45;;;;;;;;;;;22.50;99.90;;;;;;7340598;19;109944;-63
2023/06/11 05:37:12;;;;;;;;;;;22.60;99.90;;;;;;7336611;19;109816;-63
2023/06/11 05:39:39;;;;;;;;;;;22.70;99.90;;;;;;7338032;19;109591;-63
2023/06/11 05:42:07;;;;;;;;;;;22.80;99.50;;;;;;7337334;19;110210;-63
2023/06/11 05:44:34;;;;;;;;;;;22.90;99.60;;;;;;7337039;19;109482;-63
2023/06/11 05:47:01;;;;;;;;;;;23.00;99.40;;;;;;7340462;19;109833;-63
2023/06/11 05:49:28;;;;;;;;;;;23.10;99.50;;;;;;7335977;19;110560;-64
2023/06/11 05:51:55;;;;;;;;;;;23.20;99.50;;;;;;7340091;19;109362;-64
2023/06/11 05:54:22;;;;;;;;;;;23.20;98.60;;;;;;7336569;19;109459;-63
2023/06/11 05:56:49;;;;;;;;;;;23.30;99.10;;;;;;7342761;19;110495;-63
2023/06/11 05:59:16;;;;;;;;;;;23.40;99.10;;;;;;7335860;19;109265;-64
2023/06/11 06:01:45;;;;;;;;;;;23.40;98.70;;;;;;7336067;19;113990;-63
2023/06/11 06:04:13;;;;;;;;;;;23.60;98.70;;;;;;7336215;19;110000;-64
2023/06/11 06:06:40;;;;;;;;;;;23.60;99.20;;;;;;7335676;19;109380;-63
2023/06/11 06:09:07;;;;;;;;;;;23.70;98.60;;;;;;7336715;19;110053;-63
2023/06/11 06:11:34;;;;;;;;;;;23.80;98.40;;;;;;7336035;19;109372;-64
2023/06/11 06:14:02;;;;;;;;;;;23.90;98.90;;;;;;7336126;19;110098;-64
2023/06/11 06:16:31;;;;;;;;;;;24.00;98.70;;;;;;7332755;19;111066;-63
2023/06/11 06:18:58;;;;;;;;;;;24.10;98.30;;;;;;7343354;19;109786;-64
2023/06/11 06:21:26;;;;;;;;;;;24.20;98.50;;;;;;7335178;19;111095;-64
2023/06/11 06:23:53;;;;;;;;;;;24.30;98.30;;;;;;7337614;19;109487;-64
2023/06/11 06:26:20;;;;;;;;;;;24.30;97.90;;;;;;7335595;19;110403;-66
2023/06/11 06:28:48;;;;;;;;;;;24.50;98.50;;;;;;7338297;19;110394;-68
2023/06/11 06:31:17;;;;;;;;;;;24.60;98.30;;;;;;7335818;19;109805;-71
2023/06/11 06:33:44;;;;;;;;;;;24.70;97.60;;;;;;7336380;19;109514;-68
2023/06/11 06:36:11;;;;;;;;;;;24.80;97.20;;;;;;7339133;19;111200;-68
2023/06/11 06:38:40;;;;;;;;;;;24.80;97.30;;;;;;7337574;19;110352;-72
2023/06/11 06:41:07;;;;;;;;;;;24.90;97.40;;;;;;7338395;19;109694;-70
2023/06/11 06:43:35;;;;;;;;;;;25.10;97.00;;;;;;7337482;19;110153;-67
2023/06/11 06:46:02;;;;;;;;;;;25.10;97.10;;;;;;7336606;19;109427;-70
2023/06/11 06:48:29;;;;;;;;;;;25.20;97.50;;;;;;7335004;19;110464;-70
2023/06/11 06:50:56;;;;;;;;;;;25.30;96.80;;;;;;7337296;19;109699;-69
2023/06/11 06:53:23;;;;;;;;;;;25.40;96.50;;;;;;7335334;19;110843;-64
2023/06/11 06:55:51;;;;;;;;;;;25.50;96.60;;;;;;7337058;19;110891;-65
2023/06/11 06:58:19;;;;;;;;;;;25.60;96.60;;;;;;7333327;19;109702;-64
2023/06/11 07:00:46;;;;;;;;;;;25.70;95.90;;;;;;7353942;19;110819;-82
2023/06/11 07:03:14;;;;;;;;;;;25.70;96.10;;;;;;7369151;19;110017;-83
2023/06/11 07:05:41;;;;;;;;;;;25.80;95.70;;;;;;7366073;19;110411;-82
2023/06/11 07:08:10;;;;;;;;;;;25.90;95.40;;;;;;7368247;19;109716;-82
2023/06/11 07:10:38;;;;;;;;;;;25.90;95.50;;;;;;7366886;19;109158;-82
2023/06/11 07:13:05;;;;;;;;;;;26.00;96.10;;;;;;7365547;19;109277;-82
2023/06/11 07:15:32;;;;;;;;;;;26.10;95.60;;;;;;7368058;19;110686;-82
2023/06/11 07:17:59;;;;;;;;;;;26.20;95.50;;;;;;7344514;19;109498;-81
2023/06/11 07:20:26;;;;;;;;;;;26.30;95.40;;;;;;7333073;19;110073;-82
2023/06/11 07:22:53;;;;;;;;;;;26.30;94.90;;;;;;7337358;19;110837;-82
2023/06/11 07:25:21;;;;;;;;;;;26.40;95.30;;;;;;7331933;19;110582;-82
2023/06/11 07:27:48;;;;;;;;;;;26.50;95.40;;;;;;7332960;19;111785;-82
2023/06/11 07:30:15;;;;;;;;;;;26.50;95.10;;;;;;7331806;19;110927;-82
2023/06/11 07:32:42;;;;;;;;;;;26.60;95.10;;;;;;7331833;19;109562;-82
2023/06/11 07:35:09;;;;;;;;;;;26.70;95.60;;;;;;7331015;19;111112;-82
2023/06/11 07:37:36;;;;;;;;;;;26.80;95.10;;;;;;7326812;19;110570;-82
2023/06/11 07:40:05;;;;;;;;;;;26.90;95.20;;;;;;7333331;19;110332;-82
2023/06/11 07:42:32;;;;;;;;;;;27.00;95.00;;;;;;7329780;19;114102;-83
2023/06/11 07:44:59;;;;;;;;;;;27.10;94.40;;;;;;7338304;19;109934;-82
2023/06/11 07:47:26;;;;;;;;;;;27.10;95.20;;;;;;7327669;19;111629;-82
2023/06/11 07:49:54;;;;;;;;;;;27.20;94.50;;;;;;7327421;19;111693;-83
2023/06/11 07:52:21;;;;;;;;;;;27.30;94.10;;;;;;7331012;19;110191;-83
2023/06/11 08:11:19;;;;;;;;;;;27.60;93.80;;;;;;7331271;19;109790;-63
2023/06/11 08:13:46;;;;;;;;;;;27.70;93.40;;;;;;7332709;19;110289;-63
2023/06/11 08:16:15;;;;;;;;;;;27.80;93.70;;;;;;7329153;19;112166;-64
2023/06/11 08:18:42;;;;;;;;;;;28.00;94.00;;;;;;7332924;19;109528;-64
2023/06/11 08:21:09;;;;;;;;;;;28.10;93.80;;;;;;7331192;19;109291;-63
2023/06/11 08:23:38;;;;;;;;;;;28.20;93.60;;;;;;7339974;19;110452;-63
2023/06/11 08:26:06;;;;;;;;;;;28.20;92.80;;;;;;7333676;19;110778;-64
2023/06/11 08:28:34;;;;;;;;;;;28.30;93.50;;;;;;7336978;19;109788;-63
2023/06/11 08:31:01;;;;;;;;;;;28.40;93.30;;;;;;7344201;19;111841;-63
2023/06/11 08:33:29;;;;;;;;;;;28.50;92.70;;;;;;7339031;19;109488;-64
2023/06/11 08:35:56;;;;;;;;;;;28.60;92.60;;;;;;7336954;19;110411;-63
2023/06/11 08:38:24;;;;;;;;;;;28.70;93.00;;;;;;7338446;19;109872;-63
2023/06/11 08:40:53;;;;;;;;;;;28.80;93.20;;;;;;7337762;19;111611;-64
2023/06/11 08:43:21;;;;;;;;;;;28.90;92.80;;;;;;7333410;19;110087;-63
2023/06/11 08:45:48;;;;;;;;;;;28.90;92.50;;;;;;7337534;19;110260;-63
2023/06/11 08:48:18;;;;;;;;;;;29.00;92.80;;;;;;7336621;19;109501;-64
2023/06/11 08:50:46;;;;;;;;;;;29.10;91.80;;;;;;7333575;19;112873;-64
2023/06/11 08:53:14;;;;;;;;;;;29.10;91.70;;;;;;7343413;19;110869;-63
2023/06/11 08:55:41;;;;;;;;;;;29.10;91.50;;;;;;7336208;19;111163;-63
2023/06/11 08:58:09;;;;;;;;;;;29.20;91.80;;;;;;7337511;19;109343;-63
2023/06/11 09:00:37;;;;;;;;;;;29.30;90.50;;;;;;7336711;19;109487;-63
2023/06/11 09:03:04;;;;;;;;;;;29.30;91.70;;;;;;7337969;19;111600;-67
2023/06/11 09:05:31;;;;;;;;;;;29.50;92.50;;;;;;7334468;19;111238;-63
2023/06/11 09:07:58;;;;;;;;;;;29.60;91.80;;;;;;7337990;19;111723;-68
2023/06/11 09:10:26;;;;;;;;;;;29.70;91.80;;;;;;7335592;19;110610;-63
2023/06/11 09:12:54;;;;;;;;;;;29.80;91.20;;;;;;7339421;19;109928;-64
2023/06/11 09:15:24;;;;;;;;;;;29.80;90.60;;;;;;7339717;19;112876;-63
2023/06/11 09:17:51;;;;;;;;;;;29.80;90.70;;;;;;7339242;19;109332;-63
2023/06/11 09:20:18;;;;;;;;;;;29.80;90.70;;;;;;7338736;19;109508;-65
2023/06/11 09:22:46;;;;;;;;;;;29.90;90.40;;;;;;7336153;19;111116;-63
2023/06/11 09:25:16;;;;;;;;;;;29.90;90.80;;;;;;7339013;19;110737;-63
2023/06/11 09:27:47;;;;;;;;;;;30.00;90.40;;;;;;7337434;19;109292;-63
2023/06/11 09:30:16;;;;;;;;;;;30.10;90.50;;;;;;7338901;19;110122;-63
2023/06/11 09:32:46;;;;;;;;;;;30.10;88.90;;;;;;7338323;19;109589;-64
2023/06/11 09:35:14;;;;;;;;;;;30.10;88.10;;;;;;7342102;19;110273;-63
2023/06/11 09:37:47;;;;;;;;;;;30.10;88.10;;;;;;7335365;19;110716;-63
2023/06/11 09:40:15;;;;;;;;;;;30.20;90.20;;;;;;7337869;19;109907;-63
2023/06/11 09:42:43;;;;;;;;;;;30.40;89.90;;;;;;7336169;19;110459;-63
2023/06/11 09:45:11;;;;;;;;;;;30.40;89.60;;;;;;7336845;19;110045;-63
2023/06/11 09:47:39;;;;;;;;;;;30.40;88.70;;;;;;7339202;19;109828;-63
2023/06/11 09:50:06;;;;;;;;;;;30.50;87.60;;;;;;7339669;19;110200;-63
2023/06/11 09:52:34;;;;;;;;;;;30.50;86.10;;;;;;7339886;19;109852;-63
2023/06/11 09:55:02;;;;;;;;;;;30.50;87.30;;;;;;7337254;19;110694;-63
2023/06/11 09:57:31;;;;;;;;;;;30.50;87.20;;;;;;7342550;19;110073;-63
2023/06/11 09:59:59;;;;;;;;;;;30.70;86.60;;;;;;7338733;19;110768;-63
2023/06/11 10:02:26;;;;;;;;;;;30.70;86.50;;;;;;7334739;19;110724;-63
2023/06/11 10:04:54;;;;;;;;;;;30.90;84.50;;;;;;7337861;19;111588;-63
2023/06/11 10:07:21;;;;;;;;;;;30.90;86.10;;;;;;7337636;19;109366;-63
2023/06/11 10:09:50;;;;;;;;;;;31.00;86.10;;;;;;7338407;19;110405;-63
2023/06/11 10:12:19;;;;;;;;;;;31.00;84.60;;;;;;7335738;19;109838;-63
2023/06/11 10:14:50;;;;;;;;;;;31.10;85.10;;;;;;7339183;19;109324;-63
2023/06/11 10:17:17;;;;;;;;;;;31.20;84.60;;;;;;7334001;19;111400;-63
2023/06/11 10:19:53;;;;;;;;;;;31.20;85.30;;;;;;7340319;19;109354;-62
2023/06/11 10:22:21;;;;;;;;;;;31.40;86.50;;;;;;7336956;19;110507;-62
2023/06/11 10:24:58;;;;;;;;;;;31.40;84.40;;;;;;7338555;19;109750;-63
2023/06/11 10:27:35;;;;;;;;;;;31.50;84.30;;;;;;7336985;19;109261;-63
2023/06/11 10:30:04;;;;;;;;;;;31.60;84.10;;;;;;7336109;19;111089;-63
2023/06/11 10:32:31;;;;;;;;;;;31.70;83.40;;;;;;7336816;19;109564;-63
2023/06/11 10:35:04;;;;;;;;;;;31.70;84.00;;;;;;7335307;19;110078;-63
2023/06/11 10:37:33;;;;;;;;;;;31.90;84.80;;;;;;7335006;19;111001;-63
2023/06/11 10:40:00;;;;;;;;;;;32.00;83.00;;;;;;7334037;19;111079;-63
2023/06/11 10:42:28;;;;;;;;;;;32.10;82.00;;;;;;7338015;19;110135;-63
2023/06/11 10:44:56;;;;;;;;;;;32.10;81.70;;;;;;7334062;19;110080;-63
2023/06/11 10:47:23;;;;;;;;;;;32.10;82.30;;;;;;7332920;19;109728;-63
2023/06/11 10:49:50;;;;;;;;;;;32.20;80.80;;;;;;7331897;19;110349;-63
2023/06/11 10:52:17;;;;;;;;;;;32.20;82.00;;;;;;7334968;19;109290;-63
2023/06/11 10:54:48;;;;;;;;;;;32.30;81.80;;;;;;7335697;19;109357;-63
2023/06/11 10:57:15;;;;;;;;;;;32.40;82.60;;;;;;7336349;19;110082;-63
2023/06/11 10:59:43;;;;;;;;;;;32.50;80.90;;;;;;7336272;19;109546;-63
2023/06/11 11:02:13;;;;;;;;;;;32.50;80.30;;;;;;7336230;19;109466;-63
2023/06/11 11:04:51;;;;;;;;;;;32.40;78.80;;;;;;7338448;19;110096;-63
2023/06/11 11:07:18;;;;;;;;;;;32.30;80.90;;;;;;7335018;19;111881;-63
2023/06/11 11:09:45;;;;;;;;;;;32.30;80.60;;;;;;7335090;19;111534;-63
2023/06/11 11:12:14;;;;;;;;;;;32.40;80.50;;;;;;7334396;19;110524;-63
2023/06/11 11:14:41;;;;;;;;;;;32.50;82.00;;;;;;7333305;19;109875;-63
2023/06/11 11:17:08;;;;;;;;;;;32.70;78.60;;;;;;7332393;19;111077;-63
2023/06/11 11:19:39;;;;;;;;;;;32.70;78.20;;;;;;7333880;19;109374;-63
2023/06/11 11:22:06;;;;;;;;;;;32.70;80.80;;;;;;7334736;19;110442;-62
2023/06/11 11:24:36;;;;;;;;;;;32.90;79.10;;;;;;7332614;19;110088;-63
2023/06/11 11:27:06;;;;;;;;;;;33.00;77.70;;;;;;7339228;19;109998;-63
2023/06/11 11:29:33;;;;;;;;;;;32.90;77.10;;;;;;7334300;19;110090;-63
2023/06/11 11:32:01;;;;;;;;;;;32.80;79.10;;;;;;7331000;19;111872;-63
2023/06/11 11:34:28;;;;;;;;;;;32.90;77.80;;;;;;7334378;19;109581;-63
2023/06/11 11:36:55;;;;;;;;;;;32.90;79.90;;;;;;7333824;19;110514;-63
2023/06/11 11:39:22;;;;;;;;;;;32.90;77.90;;;;;;7333882;19;109407;-63
2023/06/11 11:41:49;;;;;;;;;;;32.90;77.00;;;;;;7333324;19;110369;-63
2023/06/11 11:44:17;;;;;;;;;;;32.90;76.20;;;;;;7332575;19;110145;-63
2023/06/11 11:46:44;;;;;;;;;;;33.00;77.40;;;;;;7337973;19;109665;-63
2023/06/11 11:49:12;;;;;;;;;;;33.00;77.60;;;;;;7333609;19;110259;-63
2023/06/11 11:51:45;;;;;;;;;;;33.00;75.80;;;;;;7333358;19;109877;-63
2023/06/11 11:54:13;;;;;;;;;;;32.90;75.70;;;;;;7332795;19;109484;-63
2023/06/11 11:56:40;;;;;;;;;;;32.80;77.60;;;;;;7332682;19;110207;-63
2023/06/11 11:59:17;;;;;;;;;;;32.80;75.80;;;;;;7345173;19;109557;-63
2023/06/11 12:01:54;;;;;;;;;;;32.80;77.30;;;;;;7349966;19;109575;-62
2023/06/11 12:04:22;;;;;;;;;;;32.90;76.20;;;;;;7346116;19;110095;-62
2023/06/11 12:06:49;;;;;;;;;;;33.00;75.90;;;;;;7348205;19;111112;-62
2023/06/11 12:09:16;;;;;;;;;;;33.10;76.30;;;;;;7350239;19;109901;-62
2023/06/11 12:11:43;;;;;;;;;;;33.20;75.90;;;;;;7347339;19;110246;-62
2023/06/11 12:14:30;;;;;;;;;;;33.10;74.60;;;;;;7349863;19;109447;-63
2023/06/11 12:16:57;;;;;;;;;;;33.00;76.60;;;;;;7345542;19;110286;-62
2023/06/11 12:19:24;;;;;;;;;;;33.10;76.20;;;;;;7345194;19;110020;-63
2023/06/11 12:21:52;;;;;;;;;;;33.20;74.60;;;;;;7349134;19;109449;-63
2023/06/11 12:24:19;;;;;;;;;;;33.30;75.60;;;;;;7346605;19;110680;-63
2023/06/11 12:26:46;;;;;;;;;;;33.40;74.60;;;;;;7346717;19;109346;-63
2023/06/11 12:29:14;;;;;;;;;;;33.50;74.60;;;;;;7344517;19;111960;-63
2023/06/11 12:31:41;;;;;;;;;;;33.50;74.10;;;;;;7349725;19;110414;-63
2023/06/11 12:34:10;;;;;;;;;;;33.60;74.80;;;;;;7346937;19;110078;-63
2023/06/11 12:36:37;;;;;;;;;;;33.70;75.20;;;;;;7347741;19;110216;-63
2023/06/11 12:39:04;;;;;;;;;;;33.80;75.60;;;;;;7342366;19;111513;-63
2023/06/11 12:41:31;;;;;;;;;;;33.90;72.10;;;;;;7346873;19;109907;-63
2023/06/11 12:43:58;;;;;;;;;;;34.00;75.60;;;;;;7345964;19;110530;-63
2023/06/11 12:46:28;;;;;;;;;;;34.10;73.20;;;;;;7347343;19;110352;-63
2023/06/11 12:48:55;;;;;;;;;;;34.20;74.20;;;;;;7346525;19;110060;-63
2023/06/11 12:51:22;;;;;;;;;;;34.30;75.10;;;;;;7342514;19;113651;-63
2023/06/11 12:53:53;;;;;;;;;;;34.40;74.30;;;;;;7347007;19;109792;-63
2023/06/11 12:56:23;;;;;;;;;;;34.40;71.30;;;;;;7342472;19;111191;-63
2023/06/11 12:58:50;;;;;;;;;;;34.30;71.00;;;;;;7344600;19;110458;-63
2023/06/11 13:01:17;;;;;;;;;;;34.20;72.20;;;;;;7343653;19;109712;-63
2023/06/11 13:03:44;;;;;;;;;;;34.20;69.80;;;;;;7338292;19;112726;-63
2023/06/11 13:06:11;;;;;;;;;;;34.20;71.20;;;;;;7343227;19;109526;-63
2023/06/11 13:08:39;;;;;;;;;;;34.20;70.90;;;;;;7341629;19;110360;-63
2023/06/11 13:11:06;;;;;;;;;;;34.40;72.60;;;;;;7334288;19;110631;-63
2023/06/11 13:13:33;;;;;;;;;;;34.50;70.10;;;;;;7338111;19;110682;-63
2023/06/11 13:16:00;;;;;;;;;;;34.40;70.30;;;;;;7340326;19;110091;-63
2023/06/11 13:18:28;;;;;;;;;;;34.30;69.50;;;;;;7335724;19;109975;-63
2023/06/11 13:20:55;;;;;;;;;;;34.30;73.00;;;;;;7336285;19;109498;-63
2023/06/11 13:23:31;;;;;;;;;;;34.30;71.80;;;;;;7335984;19;110444;-63
2023/06/11 13:25:58;;;;;;;;;;;34.40;69.80;;;;;;7337230;19;109968;-63
2023/06/11 13:28:26;;;;;;;;;;;34.40;69.50;;;;;;7336623;19;109603;-63
2023/06/11 13:30:55;;;;;;;;;;;34.30;70.00;;;;;;7338414;19;112894;-63
2023/06/11 13:33:23;;;;;;;;;;;34.20;68.20;;;;;;7337003;19;110757;-63
2023/06/11 13:35:50;;;;;;;;;;;34.00;68.60;;;;;;7341906;19;111102;-63
2023/06/11 13:38:17;;;;;;;;;;;34.00;69.40;;;;;;7336489;19;109989;-63
2023/06/11 13:40:44;;;;;;;;;;;34.10;71.10;;;;;;7336415;19;109967;-63
2023/06/11 13:43:11;;;;;;;;;;;34.20;70.60;;;;;;7336123;19;110430;-63
2023/06/11 13:45:42;;;;;;;;;;;34.30;70.10;;;;;;7336592;19;109714;-63
2023/06/11 13:48:10;;;;;;;;;;;34.50;70.10;;;;;;7337427;19;109954;-63
2023/06/11 13:50:37;;;;;;;;;;;34.70;69.90;;;;;;7335113;19;111324;-63
2023/06/11 13:53:04;;;;;;;;;;;34.80;68.40;;;;;;7335585;19;109554;-63
2023/06/11 13:55:33;;;;;;;;;;;34.90;66.90;;;;;;7336775;19;109235;-63
2023/06/11 13:58:00;;;;;;;;;;;34.90;67.70;;;;;;7340400;19;110964;-63
2023/06/11 14:00:27;;;;;;;;;;;35.00;67.70;;;;;;7337788;19;109974;-63
2023/06/11 14:02:54;;;;;;;;;;;35.20;66.90;;;;;;7335016;19;111414;-63
2023/06/11 14:05:22;;;;;;;;;;;35.30;67.90;;;;;;7332656;19;109846;-63
2023/06/11 14:07:49;;;;;;;;;;;35.40;66.40;;;;;;7335944;19;109969;-63
2023/06/11 14:10:16;;;;;;;;;;;35.50;65.70;;;;;;7334713;19;111577;-63
2023/06/11 14:12:43;;;;;;;;;;;35.70;64.10;;;;;;7336496;19;110559;-63
2023/06/11 14:15:10;;;;;;;;;;;35.70;64.70;;;;;;7334588;19;109784;-63
2023/06/11 14:17:39;;;;;;;;;;;35.80;64.10;;;;;;7336200;19;110447;-63
2023/06/11 14:20:07;;;;;;;;;;;35.90;65.10;;;;;;7340446;19;109859;-63
2023/06/11 14:22:34;;;;;;;;;;;36.00;65.10;;;;;;7335047;19;110812;-63
2023/06/11 14:25:02;;;;;;;;;;;36.00;62.40;;;;;;7325780;19;110068;-60